Time;durP1;ratioP1;P1;durP2;ratioP2;P2;SDS_P1;SDS_P2;PMS_P1;PMS_P2;Temp;Humidity;BMP_temperature;BMP_pressure;BME280_temperature;BME280_humidity;BME280_pressure;Samples;Min_cycle;Max_cycle;Signal;HPM_P1;HPM_P2
2023/03/07 00:01:49;;;;;;;1.08;0.90;;;21.20;32.20;;;;;;5051200;28;20451;-50
2023/03/07 00:04:15;;;;;;;1.17;0.90;;;21.20;32.20;;;;;;5048204;28;20079;-51
2023/03/07 00:06:41;;;;;;;0.90;0.73;;;21.20;32.20;;;;;;5050196;28;21694;-52
2023/03/07 00:09:08;;;;;;;1.17;0.80;;;21.20;32.30;;;;;;5049841;28;20025;-52
2023/03/07 00:11:33;;;;;;;2.05;0.85;;;21.20;32.20;;;;;;5050261;28;20365;-53
2023/03/07 00:13:59;;;;;;;1.20;1.10;;;21.20;32.30;;;;;;5049437;28;20040;-50
2023/03/07 00:16:25;;;;;;;0.95;0.77;;;21.20;32.30;;;;;;5049509;28;20053;-52
2023/03/07 00:18:51;;;;;;;1.02;0.68;;;21.20;32.30;;;;;;5047549;28;20033;-52
2023/03/07 00:21:20;;;;;;;1.58;1.05;;;21.10;32.30;;;;;;5045921;28;20033;-50
2023/03/07 00:23:46;;;;;;;1.63;0.93;;;21.10;32.40;;;;;;5049494;28;20037;-50
2023/03/07 00:26:16;;;;;;;0.90;0.80;;;21.10;32.40;;;;;;5049404;28;20061;-52
2023/03/07 00:28:44;;;;;;;1.67;0.80;;;21.10;32.40;;;;;;5047113;28;20048;-51
2023/03/07 00:31:10;;;;;;;1.45;0.80;;;21.10;32.40;;;;;;5047674;28;20028;-53
2023/03/07 00:33:37;;;;;;;1.30;0.80;;;21.10;32.40;;;;;;5048053;28;20067;-49
2023/03/07 00:36:11;;;;;;;1.60;0.90;;;21.10;32.40;;;;;;5048818;28;20059;-53
2023/03/07 00:38:37;;;;;;;1.08;0.63;;;21.10;32.40;;;;;;5047098;28;20025;-54
2023/03/07 00:41:08;;;;;;;0.88;0.75;;;21.10;32.40;;;;;;5049444;28;20448;-51
2023/03/07 00:43:35;;;;;;;0.82;0.70;;;21.10;32.50;;;;;;5047117;28;20118;-51
2023/03/07 00:46:02;;;;;;;1.20;0.80;;;21.10;32.50;;;;;;5048243;28;20063;-52
2023/03/07 00:48:29;;;;;;;1.38;0.70;;;21.10;32.50;;;;;;5047318;28;20459;-51
2023/03/07 00:50:55;;;;;;;1.90;0.70;;;21.10;32.50;;;;;;5048167;28;20345;-52
2023/03/07 00:53:24;;;;;;;0.88;0.70;;;21.00;32.40;;;;;;5048249;28;20449;-50
2023/03/07 00:56:04;;;;;;;1.20;0.90;;;21.00;32.40;;;;;;5048162;28;20044;-49
2023/03/07 00:58:33;;;;;;;1.30;0.70;;;21.00;32.40;;;;;;5040783;28;20022;-52
2023/03/07 01:01:00;;;;;;;0.85;0.65;;;21.00;32.40;;;;;;5053989;28;20757;-51
2023/03/07 01:03:27;;;;;;;0.80;0.60;;;21.00;32.40;;;;;;5044086;28;20056;-52
2023/03/07 01:05:54;;;;;;;0.90;0.70;;;21.00;32.50;;;;;;5048060;28;20033;-51
2023/03/07 01:08:22;;;;;;;1.15;0.77;;;21.00;32.50;;;;;;5042972;28;20034;-47
2023/03/07 01:10:48;;;;;;;1.55;0.77;;;21.00;32.50;;;;;;5046733;28;20025;-51
2023/03/07 01:13:16;;;;;;;1.67;0.88;;;21.00;32.50;;;;;;5043766;28;20236;-50
2023/03/07 01:15:42;;;;;;;1.92;1.00;;;21.00;32.50;;;;;;5049544;28;20089;-49
2023/03/07 01:18:09;;;;;;;1.10;0.75;;;21.00;32.50;;;;;;5046221;28;20021;-51
2023/03/07 01:20:37;;;;;;;0.77;0.50;;;21.00;32.60;;;;;;5044312;28;20055;-51
2023/03/07 01:23:04;;;;;;;0.93;0.60;;;21.00;32.60;;;;;;5048331;28;20065;-53
2023/03/07 01:25:30;;;;;;;1.45;0.60;;;21.00;32.60;;;;;;5047848;28;20025;-52
2023/03/07 01:27:57;;;;;;;0.88;0.60;;;20.90;32.60;;;;;;5045910;28;20440;-52
2023/03/07 01:30:27;;;;;;;1.10;0.60;;;20.90;32.60;;;;;;5046522;28;20134;-51
2023/03/07 01:32:57;;;;;;;1.88;0.70;;;20.90;33.30;;;;;;5046120;28;20139;-51
2023/03/07 01:35:23;;;;;;;0.93;0.60;;;20.90;32.70;;;;;;5046029;28;20029;-49
2023/03/07 01:37:51;;;;;;;1.80;0.75;;;20.90;32.70;;;;;;5045531;28;20035;-50
2023/03/07 01:40:18;;;;;;;1.00;0.70;;;20.90;32.70;;;;;;5048215;28;20029;-50
2023/03/07 01:42:44;;;;;;;1.25;0.65;;;20.90;32.80;;;;;;5046821;28;20048;-48
2023/03/07 01:45:13;;;;;;;1.92;0.80;;;20.90;32.80;;;;;;5047506;28;20039;-51
2023/03/07 01:47:44;;;;;;;1.23;0.70;;;20.90;32.80;;;;;;5046492;28;20360;-50
2023/03/07 01:50:15;;;;;;;1.08;0.73;;;20.80;32.80;;;;;;5057549;28;20029;-53
2023/03/07 01:52:55;;;;;;;1.48;0.80;;;20.90;32.80;;;;;;5048605;28;20102;-50
2023/03/07 01:55:32;;;;;;;1.38;0.60;;;20.90;32.90;;;;;;5061496;28;20083;-51
2023/03/07 01:58:15;;;;;;;1.25;0.60;;;20.80;32.80;;;;;;5043721;28;20021;-52
2023/03/07 02:00:43;;;;;;;1.88;0.75;;;20.80;32.90;;;;;;5046593;28;20072;-50
2023/03/07 02:03:20;;;;;;;1.52;0.70;;;20.80;32.90;;;;;;5046745;28;20103;-51
2023/03/07 02:05:57;;;;;;;0.85;0.50;;;20.80;32.90;;;;;;5077429;28;20029;-49
2023/03/07 02:08:28;;;;;;;1.48;0.65;;;20.80;32.90;;;;;;5050707;28;20029;-47
2023/03/07 02:10:54;;;;;;;1.20;0.70;;;20.80;33.00;;;;;;5047122;28;20093;-49
2023/03/07 02:13:20;;;;;;;1.30;0.65;;;20.80;33.00;;;;;;5047196;28;20056;-49
2023/03/07 02:15:46;;;;;;;0.68;0.50;;;20.80;33.00;;;;;;5050536;28;20020;-48
2023/03/07 02:18:18;;;;;;;0.88;0.60;;;20.80;33.00;;;;;;5046728;28;20025;-50
2023/03/07 02:21:04;;;;;;;1.13;0.63;;;20.80;33.00;;;;;;5052007;28;20436;-49
2023/03/07 02:23:42;;;;;;;1.02;0.50;;;20.70;33.00;;;;;;5050053;28;20105;-51
2023/03/07 02:26:19;;;;;;;1.85;0.73;;;20.80;33.00;;;;;;5048758;28;20468;-47
2023/03/07 02:28:47;;;;;;;1.15;0.57;;;20.70;33.00;;;;;;5047588;28;20033;-48
2023/03/07 02:31:13;;;;;;;1.83;0.57;;;20.70;33.00;;;;;;5049060;28;20413;-51
2023/03/07 02:33:40;;;;;;;1.45;0.80;;;20.70;33.10;;;;;;5048809;28;20032;-48
2023/03/07 02:36:12;;;;;;;1.13;0.60;;;20.70;33.10;;;;;;5050261;28;20060;-50
2023/03/07 02:38:47;;;;;;;1.13;0.60;;;20.70;33.10;;;;;;5051178;28;20570;-50
2023/03/07 02:41:19;;;;;;;0.55;0.30;;;20.70;33.10;;;;;;5050241;28;20108;-49
2023/03/07 02:43:45;;;;;;;1.17;0.60;;;20.70;33.10;;;;;;5051550;28;20365;-50
2023/03/07 02:46:11;;;;;;;1.60;0.63;;;20.70;33.20;;;;;;5048964;28;20025;-49
2023/03/07 02:48:37;;;;;;;0.93;0.50;;;20.70;33.10;;;;;;5080910;28;20036;-50
2023/03/07 02:51:03;;;;;;;0.73;0.40;;;20.60;33.10;;;;;;5049232;28;20024;-54
2023/03/07 02:53:29;;;;;;;0.95;0.45;;;20.70;33.10;;;;;;5050386;28;20116;-50
2023/03/07 02:55:55;;;;;;;0.85;0.40;;;20.70;33.10;;;;;;5050710;28;20109;-53
2023/03/07 02:58:21;;;;;;;0.82;0.47;;;20.70;33.10;;;;;;5031904;28;20036;-52
2023/03/07 03:00:47;;;;;;;1.33;0.43;;;20.60;33.00;;;;;;5044514;28;20037;-53
2023/03/07 03:03:13;;;;;;;0.93;0.40;;;20.60;33.10;;;;;;5050997;28;20119;-52
2023/03/07 03:05:39;;;;;;;3.05;0.60;;;20.60;33.10;;;;;;5050258;28;20325;-47
2023/03/07 03:08:05;;;;;;;2.25;0.50;;;20.60;33.10;;;;;;5049301;28;20081;-50
2023/03/07 03:10:31;;;;;;;1.20;0.70;;;20.60;33.10;;;;;;5048503;28;20037;-51
2023/03/07 03:12:58;;;;;;;0.40;0.40;;;20.60;33.10;;;;;;5066962;28;20052;-48
2023/03/07 03:15:24;;;;;;;1.25;0.50;;;20.60;33.10;;;;;;5047807;28;20025;-50
2023/03/07 03:17:52;;;;;;;0.90;0.60;;;20.60;33.10;;;;;;5045297;28;20048;-47
2023/03/07 03:20:18;;;;;;;1.17;0.50;;;20.60;33.10;;;;;;5051218;28;20131;-47
2023/03/07 03:22:44;;;;;;;1.83;0.80;;;20.60;33.10;;;;;;5047436;28;20458;-48
2023/03/07 03:25:12;;;;;;;1.90;0.77;;;20.60;33.10;;;;;;5047839;28;20028;-47
2023/03/07 03:27:40;;;;;;;2.05;0.68;;;20.60;33.70;;;;;;5048761;28;20028;-47
2023/03/07 03:30:08;;;;;;;0.85;0.47;;;20.60;33.10;;;;;;5047097;28;20110;-50
2023/03/07 03:32:37;;;;;;;0.90;0.50;;;20.60;33.20;;;;;;5055326;28;20040;-51
2023/03/07 03:35:04;;;;;;;1.25;0.60;;;20.60;33.30;;;;;;5049559;28;20368;-46
2023/03/07 03:37:31;;;;;;;1.98;0.70;;;20.60;33.20;;;;;;5050016;28;20060;-47
2023/03/07 03:39:57;;;;;;;2.28;0.70;;;20.50;33.10;;;;;;5049625;28;20404;-47
2023/03/07 03:42:23;;;;;;;1.30;0.63;;;20.60;33.80;;;;;;5049777;28;20033;-48
2023/03/07 03:44:49;;;;;;;0.80;0.45;;;20.60;33.10;;;;;;5050017;28;20364;-51
2023/03/07 03:47:15;;;;;;;1.73;0.68;;;20.50;33.10;;;;;;5047744;28;20033;-50
2023/03/07 03:49:41;;;;;;;2.00;0.60;;;20.50;33.00;;;;;;5049206;28;20025;-51
2023/03/07 03:52:08;;;;;;;1.00;0.60;;;20.50;33.00;;;;;;5047631;28;20068;-47
2023/03/07 03:54:35;;;;;;;1.55;0.70;;;20.50;33.00;;;;;;5047902;28;20021;-45
2023/03/07 03:57:01;;;;;;;2.65;0.73;;;20.50;33.00;;;;;;5048984;28;20038;-51
2023/03/07 03:59:29;;;;;;;2.00;0.77;;;20.50;33.00;;;;;;5047281;28;20085;-47
2023/03/07 04:01:55;;;;;;;1.13;0.50;;;20.50;33.10;;;;;;5047759;28;20448;-53
2023/03/07 04:04:21;;;;;;;1.60;0.68;;;20.50;33.10;;;;;;5047523;28;20021;-48
2023/03/07 04:06:47;;;;;;;1.27;0.55;;;20.50;33.10;;;;;;5050679;28;20353;-52
2023/03/07 04:09:13;;;;;;;2.55;0.85;;;20.50;33.10;;;;;;5048249;28;20071;-52
2023/03/07 04:11:42;;;;;;;1.38;0.73;;;20.50;33.10;;;;;;5040320;28;20053;-52
2023/03/07 04:14:08;;;;;;;2.30;0.63;;;20.50;33.10;;;;;;5046080;28;20037;-51
2023/03/07 04:16:34;;;;;;;1.10;0.52;;;20.50;33.20;;;;;;5045161;28;20033;-52
2023/03/07 04:19:00;;;;;;;0.95;0.65;;;20.50;33.20;;;;;;5044506;28;20026;-51
2023/03/07 04:21:26;;;;;;;1.63;0.60;;;20.50;33.20;;;;;;5047055;28;20025;-49
2023/03/07 04:23:57;;;;;;;1.70;0.70;;;20.50;33.20;;;;;;5047565;28;20033;-47
2023/03/07 04:26:25;;;;;;;1.80;0.68;;;20.40;33.20;;;;;;5048248;28;20036;-51
2023/03/07 04:28:51;;;;;;;1.27;0.60;;;20.50;33.30;;;;;;5046316;28;20029;-52
2023/03/07 04:31:35;;;;;;;1.48;0.73;;;20.40;33.30;;;;;;5048146;28;20354;-50
2023/03/07 04:34:04;;;;;;;2.40;0.63;;;20.40;33.30;;;;;;5048992;28;20060;-50
2023/03/07 04:36:30;;;;;;;1.92;0.60;;;20.40;33.30;;;;;;5048519;28;20040;-49
2023/03/07 04:38:56;;;;;;;1.05;0.52;;;20.40;33.40;;;;;;5048027;28;20017;-51
2023/03/07 04:41:26;;;;;;;2.40;0.80;;;20.40;33.40;;;;;;5048571;28;20029;-50
2023/03/07 04:44:13;;;;;;;1.40;0.70;;;20.40;33.40;;;;;;5049916;28;20128;-48
2023/03/07 04:46:39;;;;;;;2.10;0.65;;;20.40;33.40;;;;;;5047107;28;20066;-48
2023/03/07 04:49:05;;;;;;;1.85;0.60;;;20.40;33.40;;;;;;5048113;28;20048;-50
2023/03/07 04:51:31;;;;;;;1.40;0.50;;;20.40;33.40;;;;;;5048208;28;20025;-51
2023/03/07 04:53:57;;;;;;;1.38;0.50;;;20.40;33.30;;;;;;5047046;28;20360;-53
2023/03/07 04:56:23;;;;;;;2.80;0.80;;;20.40;33.30;;;;;;5049495;28;20029;-51
2023/03/07 04:58:49;;;;;;;1.95;0.55;;;20.40;33.30;;;;;;5050422;28;20059;-51
2023/03/07 05:01:17;;;;;;;1.27;0.55;;;20.30;33.30;;;;;;5048471;28;20445;-52
2023/03/07 05:03:43;;;;;;;1.45;0.50;;;20.40;33.30;;;;;;5047383;28;20059;-53
2023/03/07 05:06:14;;;;;;;1.55;0.75;;;20.30;33.20;;;;;;5043391;28;20193;-49
2023/03/07 05:08:40;;;;;;;1.10;0.38;;;20.30;33.10;;;;;;5048933;28;20056;-48
2023/03/07 05:11:06;;;;;;;1.50;0.60;;;20.30;33.20;;;;;;5048438;28;20053;-47
2023/03/07 05:13:32;;;;;;;0.93;0.57;;;20.30;33.10;;;;;;5049426;28;20449;-49
2023/03/07 05:15:59;;;;;;;2.25;0.60;;;20.30;33.10;;;;;;5046725;28;20116;-49
2023/03/07 05:18:26;;;;;;;1.65;0.70;;;20.30;33.10;;;;;;5045817;28;20040;-51
2023/03/07 05:20:54;;;;;;;2.08;0.60;;;20.30;33.10;;;;;;5047207;28;20087;-50
2023/03/07 05:23:20;;;;;;;1.80;0.70;;;20.30;33.10;;;;;;5041141;28;20048;-54
2023/03/07 05:25:48;;;;;;;2.33;0.55;;;20.30;33.10;;;;;;5046894;28;20066;-49
2023/03/07 05:28:15;;;;;;;1.00;0.60;;;20.30;33.10;;;;;;5048766;28;20025;-50
2023/03/07 05:30:42;;;;;;;2.80;0.88;;;20.30;33.10;;;;;;5049259;28;20044;-50
2023/03/07 05:33:08;;;;;;;0.98;0.50;;;20.30;33.20;;;;;;5039827;28;20037;-50
2023/03/07 05:35:35;;;;;;;1.42;0.68;;;20.30;33.20;;;;;;5049522;28;20028;-50
2023/03/07 05:38:02;;;;;;;1.35;0.63;;;20.30;33.30;;;;;;5046261;28;20033;-49
2023/03/07 05:40:30;;;;;;;2.10;0.80;;;20.30;33.30;;;;;;5049134;28;20437;-49
2023/03/07 05:42:56;;;;;;;2.25;0.75;;;20.20;33.30;;;;;;5050008;28;20083;-51
2023/03/07 05:45:22;;;;;;;1.80;0.70;;;20.20;33.30;;;;;;5052593;28;20044;-52
2023/03/07 05:47:48;;;;;;;1.52;0.50;;;20.20;33.30;;;;;;5052251;28;20070;-50
2023/03/07 05:50:14;;;;;;;1.73;0.63;;;20.20;33.40;;;;;;5049513;28;20104;-46
2023/03/07 05:52:41;;;;;;;1.35;0.47;;;20.20;33.30;;;;;;5052544;28;20029;-48
2023/03/07 05:55:08;;;;;;;1.38;0.70;;;20.20;33.40;;;;;;5051175;28;20341;-50
2023/03/07 05:57:33;;;;;;;1.80;0.55;;;20.20;33.40;;;;;;5051407;28;20051;-48
2023/03/07 05:59:59;;;;;;;1.20;0.50;;;20.20;33.30;;;;;;5051769;28;20017;-50
2023/03/07 06:02:25;;;;;;;0.77;0.47;;;20.20;33.30;;;;;;5050383;28;20029;-48
2023/03/07 06:04:51;;;;;;;1.58;0.65;;;20.20;33.20;;;;;;5048629;28;20028;-51
2023/03/07 06:07:17;;;;;;;1.40;0.50;;;20.20;33.20;;;;;;5051201;28;20036;-52
2023/03/07 06:09:43;;;;;;;0.40;0.20;;;20.20;33.10;;;;;;5049422;28;20017;-47
2023/03/07 06:12:10;;;;;;;1.98;0.50;;;20.20;33.00;;;;;;5052076;28;20029;-48
2023/03/07 06:14:36;;;;;;;2.63;0.50;;;20.20;33.00;;;;;;5052743;28;20073;-48
2023/03/07 06:17:03;;;;;;;1.23;0.40;;;20.20;33.00;;;;;;5051503;28;20079;-51
2023/03/07 06:19:30;;;;;;;1.65;0.40;;;20.20;33.00;;;;;;5045707;28;20368;-47
2023/03/07 06:21:56;;;;;;;1.08;0.50;;;20.20;33.00;;;;;;5052174;28;20417;-53
2023/03/07 06:24:22;;;;;;;2.05;0.50;;;20.20;33.00;;;;;;5051020;28;20064;-48
2023/03/07 06:26:48;;;;;;;1.08;0.30;;;20.20;32.90;;;;;;5065279;28;20032;-50
2023/03/07 06:29:17;;;;;;;0.95;0.30;;;20.20;32.90;;;;;;5049585;28;20035;-51
2023/03/07 06:31:43;;;;;;;1.10;0.45;;;20.20;32.90;;;;;;5050771;28;20411;-51
2023/03/07 06:34:09;;;;;;;0.50;0.20;;;20.20;32.80;;;;;;5050389;28;20040;-48
2023/03/07 06:36:35;;;;;;;0.88;0.35;;;20.10;32.70;;;;;;5049660;28;20028;-52
2023/03/07 06:39:01;;;;;;;1.40;0.30;;;20.20;32.60;;;;;;5048993;28;20025;-52
2023/03/07 06:41:27;;;;;;;1.50;0.40;;;20.10;32.50;;;;;;5051270;28;20341;-50
2023/03/07 06:43:55;;;;;;;0.93;0.38;;;20.10;32.40;;;;;;5051460;28;20098;-51
2023/03/07 06:46:27;;;;;;;0.88;0.28;;;20.10;32.30;;;;;;5047640;28;20047;-51
2023/03/07 06:48:54;;;;;;;0.45;0.25;;;20.20;32.30;;;;;;5032670;28;20356;-50
2023/03/07 06:51:20;;;;;;;0.47;0.20;;;20.10;32.20;;;;;;5049915;28;20021;-47
2023/03/07 06:53:47;;;;;;;1.27;0.43;;;20.10;32.20;;;;;;5051710;28;20032;-53
2023/03/07 06:56:13;;;;;;;0.70;0.28;;;20.10;32.10;;;;;;5046902;28;20060;-50
2023/03/07 06:58:39;;;;;;;1.38;0.30;;;20.10;32.20;;;;;;5050487;28;20041;-52
2023/03/07 07:01:13;;;;;;;1.08;0.30;;;20.10;32.10;;;;;;5032050;28;20024;-52
2023/03/07 07:03:39;;;;;;;0.85;0.30;;;20.10;32.00;;;;;;5048995;28;20079;-50
2023/03/07 07:06:05;;;;;;;1.80;0.35;;;20.10;32.00;;;;;;5050192;28;20376;-49
2023/03/07 07:08:31;;;;;;;0.88;0.25;;;20.10;32.00;;;;;;5047867;28;20033;-50
2023/03/07 07:10:58;;;;;;;1.08;0.28;;;20.10;32.00;;;;;;5051224;28;20364;-48
2023/03/07 07:13:24;;;;;;;1.90;0.40;;;20.10;32.00;;;;;;5049258;28;20077;-51
2023/03/07 07:15:50;;;;;;;0.82;0.30;;;20.10;31.90;;;;;;5050936;28;20063;-48
2023/03/07 07:18:16;;;;;;;1.02;0.40;;;20.10;31.90;;;;;;5047654;28;20029;-53
2023/03/07 07:20:43;;;;;;;0.85;0.20;;;20.10;31.90;;;;;;5050714;28;20392;-50
2023/03/07 07:23:09;;;;;;;1.33;0.30;;;20.10;31.90;;;;;;5044688;28;20098;-52
2023/03/07 07:25:37;;;;;;;1.85;0.40;;;20.10;31.90;;;;;;5042653;28;20121;-55
2023/03/07 07:28:03;;;;;;;0.47;0.25;;;20.10;31.90;;;;;;5044762;28;20025;-50
2023/03/07 07:30:29;;;;;;;1.58;0.38;;;20.10;31.90;;;;;;5041508;28;20020;-49
2023/03/07 07:32:55;;;;;;;1.15;0.40;;;20.10;31.90;;;;;;5040939;28;20024;-51
2023/03/07 07:35:22;;;;;;;1.70;0.40;;;20.10;31.90;;;;;;5042977;28;20037;-52
2023/03/07 07:37:47;;;;;;;0.75;0.32;;;20.00;31.80;;;;;;5047468;28;20090;-48
2023/03/07 07:40:14;;;;;;;1.67;0.80;;;20.00;31.80;;;;;;5046180;28;20053;-50
2023/03/07 07:42:42;;;;;;;0.90;0.50;;;20.10;31.80;;;;;;5045022;28;20386;-52
2023/03/07 07:45:28;;;;;;;1.67;0.52;;;20.10;31.90;;;;;;5039467;28;20045;-52
2023/03/07 07:47:54;;;;;;;2.22;0.60;;;20.00;31.80;;;;;;5048440;28;20082;-53
2023/03/07 07:50:22;;;;;;;1.70;1.17;;;20.00;31.90;;;;;;5045478;28;20496;-52
2023/03/07 07:52:48;;;;;;;3.70;1.60;;;20.10;32.00;;;;;;5046080;28;20091;-51
2023/03/07 07:55:14;;;;;;;3.97;2.63;;;20.10;32.20;;;;;;5043371;28;21017;-54
2023/03/07 07:57:42;;;;;;;6.45;3.42;;;20.10;32.40;;;;;;5042440;28;20045;-52
2023/03/07 08:00:11;;;;;;;4.93;3.35;;;20.10;32.50;;;;;;5045242;28;20036;-49
2023/03/07 08:02:40;;;;;;;6.72;3.50;;;20.10;32.60;;;;;;5042888;28;20037;-48
2023/03/07 08:05:09;;;;;;;5.70;3.80;;;20.10;32.90;;;;;;5049405;28;20032;-48
2023/03/07 08:07:35;;;;;;;6.07;3.63;;;20.10;33.00;;;;;;5042730;28;20321;-51
2023/03/07 08:10:01;;;;;;;4.55;3.10;;;20.20;33.00;;;;;;5040673;28;20809;-51
2023/03/07 08:12:27;;;;;;;4.75;3.35;;;20.20;32.90;;;;;;5044243;28;20120;-53
2023/03/07 08:14:53;;;;;;;4.55;3.28;;;20.30;32.90;;;;;;5053650;28;20417;-50
2023/03/07 08:17:18;;;;;;;4.65;3.05;;;20.30;32.90;;;;;;5052193;28;20036;-50
2023/03/07 08:19:44;;;;;;;4.88;3.10;;;20.40;32.80;;;;;;5048788;28;20036;-51
2023/03/07 08:22:10;;;;;;;5.10;2.88;;;20.40;32.70;;;;;;5051968;28;21118;-51
2023/03/07 08:24:37;;;;;;;4.97;3.28;;;20.40;32.60;;;;;;5050792;28;20440;-51
2023/03/07 08:27:03;;;;;;;4.95;2.83;;;20.50;32.50;;;;;;5052848;28;20017;-48
2023/03/07 08:29:29;;;;;;;3.95;2.60;;;20.50;32.40;;;;;;5052333;28;20470;-53
2023/03/07 08:31:54;;;;;;;4.20;2.90;;;20.50;32.30;;;;;;5048818;28;20056;-53
2023/03/07 08:34:20;;;;;;;6.18;3.30;;;20.60;32.20;;;;;;5045095;28;20036;-54
2023/03/07 08:36:46;;;;;;;4.30;2.50;;;20.60;32.10;;;;;;5045910;28;20322;-49
2023/03/07 08:39:13;;;;;;;3.92;2.22;;;20.70;32.00;;;;;;5046143;28;20040;-50
2023/03/07 08:41:39;;;;;;;3.90;2.40;;;20.70;32.00;;;;;;5046073;28;20095;-51
2023/03/07 08:44:05;;;;;;;3.95;2.58;;;20.80;31.90;;;;;;5040090;28;20174;-53
2023/03/07 08:46:30;;;;;;;4.38;2.85;;;20.80;31.80;;;;;;5043699;28;20097;-53
2023/03/07 08:48:56;;;;;;;4.25;2.85;;;20.90;31.80;;;;;;5044249;28;20464;-52
2023/03/07 08:51:22;;;;;;;5.03;3.22;;;20.90;31.70;;;;;;5044496;28;20086;-51
2023/03/07 08:53:48;;;;;;;5.18;3.70;;;20.90;31.70;;;;;;5046880;28;20104;-51
2023/03/07 08:56:17;;;;;;;6.63;4.45;;;21.00;31.70;;;;;;5044304;28;20357;-51
2023/03/07 08:58:43;;;;;;;5.80;4.03;;;21.00;31.70;;;;;;5045568;28;20060;-51
2023/03/07 09:01:09;;;;;;;6.63;4.45;;;21.10;31.70;;;;;;5042395;28;20122;-52
2023/03/07 09:03:35;;;;;;;7.45;4.80;;;21.10;31.60;;;;;;5047271;28;20059;-54
2023/03/07 09:06:02;;;;;;;7.28;5.03;;;21.10;31.50;;;;;;5052797;28;20433;-52
2023/03/07 09:08:32;;;;;;;7.05;5.00;;;21.20;31.60;;;;;;5065910;28;20036;-52
2023/03/07 09:11:04;;;;;;;6.65;4.53;;;21.20;31.50;;;;;;5068662;28;20404;-49
2023/03/07 09:13:30;;;;;;;6.55;4.63;;;21.20;31.40;;;;;;5048336;28;20115;-48
2023/03/07 09:15:56;;;;;;;6.03;4.30;;;21.20;31.40;;;;;;5039005;28;20409;-51
2023/03/07 09:18:21;;;;;;;6.10;4.28;;;21.20;31.30;;;;;;5056805;28;20112;-53
2023/03/07 09:20:47;;;;;;;6.18;4.43;;;21.30;31.30;;;;;;5070269;28;20037;-51
2023/03/07 09:23:13;;;;;;;5.72;4.40;;;21.30;31.20;;;;;;5058808;28;20136;-49
2023/03/07 09:25:39;;;;;;;6.05;4.47;;;21.30;31.10;;;;;;5060176;28;20044;-48
2023/03/07 09:28:05;;;;;;;4.07;3.00;;;21.30;31.10;;;;;;5043103;28;20034;-55
2023/03/07 09:30:31;;;;;;;6.43;3.40;;;21.40;31.20;;;;;;5072855;28;20056;-58
2023/03/07 09:32:57;;;;;;;5.18;4.00;;;21.40;31.40;;;;;;5070222;28;20035;-58
2023/03/07 09:35:24;;;;;;;6.70;4.97;;;21.40;31.70;;;;;;5070065;28;20452;-58
2023/03/07 09:37:50;;;;;;;7.40;5.65;;;21.40;32.00;;;;;;5068298;28;20355;-56
2023/03/07 09:40:22;;;;;;;7.72;6.18;;;21.50;32.10;;;;;;5074738;28;20024;-56
2023/03/07 09:43:17;;;;;;;10.23;7.68;;;21.60;32.20;;;;;;5078507;28;20036;-57
2023/03/07 09:46:22;;;;;;;9.73;8.10;;;21.70;32.30;;;;;;5070826;28;20048;-56
2023/03/07 09:49:12;;;;;;;12.13;8.60;;;21.80;32.30;;;;;;5045437;28;20445;-53
2023/03/07 09:51:41;;;;;;;12.35;10.18;;;21.90;32.30;;;;;;5060200;28;20074;-49
2023/03/07 09:54:15;;;;;;;10.85;9.13;;;22.00;32.20;;;;;;5065247;28;20028;-50
2023/03/07 09:56:59;;;;;;;10.00;8.55;;;22.10;32.00;;;;;;5050711;28;20044;-53
2023/03/07 09:59:34;;;;;;;10.13;8.15;;;22.20;31.60;;;;;;5062130;28;20475;-50
2023/03/07 10:02:19;;;;;;;9.27;7.70;;;22.20;31.30;;;;;;5054439;28;20094;-49
2023/03/07 10:04:53;;;;;;;;;;;22.30;31.10;;;;;;5054903;28;20029;-52
2023/03/07 10:07:23;;;;;;;10.13;7.55;;;22.30;30.90;;;;;;5079336;28;19908;-53
2023/03/07 10:09:56;;;;;;;9.93;7.85;;;22.30;30.70;;;;;;5055394;28;20056;-55
2023/03/07 10:12:38;;;;;;;9.77;8.02;;;22.20;30.60;;;;;;5054398;28;20436;-53
2023/03/07 10:15:22;;;;;;;9.77;8.13;;;22.20;30.50;;;;;;5055638;28;20409;-50
2023/03/07 10:18:06;;;;;;;10.05;8.02;;;22.20;30.40;;;;;;5051636;28;20025;-54
2023/03/07 10:20:46;;;;;;;7.93;6.97;;;22.20;30.40;;;;;;5054357;28;20108;-51
2023/03/07 10:23:33;;;;;;;10.30;7.68;;;22.10;30.30;;;;;;5053534;28;20107;-50
2023/03/07 10:26:20;;;;;;;9.48;7.35;;;22.10;30.40;;;;;;5053825;28;20033;-54
2023/03/07 10:28:47;;;;;;;9.13;6.90;;;22.10;30.40;;;;;;5055555;28;20452;-53
2023/03/07 10:31:36;;;;;;;9.82;7.45;;;22.00;30.30;;;;;;5055780;28;20445;-50
2023/03/07 10:34:23;;;;;;;9.65;7.25;;;22.00;30.40;;;;;;5049526;28;20453;-52
2023/03/07 10:36:51;;;;;;;8.75;6.90;;;22.00;30.40;;;;;;5044980;28;20029;-54
2023/03/07 10:39:36;;;;;;;9.10;7.32;;;21.90;30.40;;;;;;5050721;28;20033;-54
2023/03/07 10:42:02;;;;;;;8.18;6.68;;;21.90;30.40;;;;;;5053360;28;20559;-53
2023/03/07 10:44:33;;;;;;;9.70;7.68;;;21.90;30.40;;;;;;5055315;28;20032;-54
2023/03/07 10:46:59;;;;;;;10.85;7.82;;;21.90;30.40;;;;;;5054069;28;20041;-54
2023/03/07 10:49:41;;;;;;;8.45;7.18;;;21.80;30.40;;;;;;5055408;28;20114;-52
2023/03/07 10:52:31;;;;;;;9.45;7.70;;;21.80;30.40;;;;;;5055184;28;20036;-53
2023/03/07 10:55:32;;;;;;;8.43;7.13;;;21.80;30.40;;;;;;5050581;28;20051;-54
2023/03/07 10:58:19;;;;;;;9.15;7.13;;;21.80;30.40;;;;;;5052503;28;20025;-55
2023/03/07 11:01:06;;;;;;;9.27;7.15;;;21.80;30.60;;;;;;5053552;28;20043;-56
2023/03/07 11:03:53;;;;;;;10.77;6.93;;;21.80;30.60;;;;;;5047772;28;20074;-55
2023/03/07 11:06:46;;;;;;;8.55;6.53;;;21.80;30.70;;;;;;5052888;28;20017;-55
2023/03/07 11:09:24;;;;;;;8.18;5.70;;;21.80;30.80;;;;;;5045961;28;20083;-51
2023/03/07 11:11:53;;;;;;;8.57;6.05;;;21.80;30.90;;;;;;5050166;28;20036;-49
2023/03/07 11:14:20;;;;;;;8.75;6.95;;;21.80;30.90;;;;;;5052951;28;20119;-54
2023/03/07 11:16:59;;;;;;;8.82;7.15;;;21.80;30.90;;;;;;5052961;28;20108;-52
2023/03/07 11:19:33;;;;;;;9.15;7.07;;;21.80;30.90;;;;;;5052151;28;20416;-53
2023/03/07 11:22:02;;;;;;;9.80;7.22;;;21.80;31.00;;;;;;5052229;28;20039;-52
2023/03/07 11:24:51;;;;;;;10.85;7.82;;;21.80;31.00;;;;;;5051592;28;20033;-54
2023/03/07 11:27:31;;;;;;;11.70;8.40;;;21.80;31.00;;;;;;5044613;28;20040;-56
2023/03/07 11:30:52;;;;;;;14.32;10.10;;;21.80;31.30;;;;;;5055593;28;20024;-50
2023/03/07 11:33:44;;;;;;;15.35;11.82;;;21.80;31.60;;;;;;5032113;28;20051;-52
2023/03/07 11:36:16;;;;;;;15.73;11.52;;;21.90;31.80;;;;;;5031862;28;20033;-55
2023/03/07 11:38:58;;;;;;;14.68;12.38;;;21.90;31.70;;;;;;5046130;28;20384;-56
2023/03/07 11:41:35;;;;;;;16.23;12.40;;;22.00;31.60;;;;;;5052632;28;20112;-55
2023/03/07 11:44:07;;;;;;;19.67;12.77;;;22.10;31.40;;;;;;5051861;28;20372;-57
2023/03/07 11:47:09;;;;;;;15.40;11.82;;;22.30;31.50;;;;;;5052952;28;20464;-55
2023/03/07 11:50:05;;;;;;;15.82;12.23;;;22.30;31.30;;;;;;5050274;28;20064;-55
2023/03/07 11:52:58;;;;;;;19.13;13.77;;;22.50;31.30;;;;;;5053529;28;20045;-56
2023/03/07 11:55:30;;;;;;;17.35;13.40;;;22.60;31.50;;;;;;5053587;28;20029;-55
2023/03/07 11:58:02;;;;;;;18.42;14.23;;;22.70;31.50;;;;;;5052735;28;20048;-58
2023/03/07 12:00:39;;;;;;;18.00;14.20;;;22.70;31.60;;;;;;5053089;28;20524;-55
2023/03/07 12:03:26;;;;;;;17.55;13.77;;;22.80;31.60;;;;;;5052088;28;20041;-56
2023/03/07 12:05:58;;;;;;;17.73;14.77;;;22.90;31.60;;;;;;5050595;28;20103;-50
2023/03/07 12:08:49;;;;;;;20.48;15.30;;;23.00;31.60;;;;;;5053781;28;20045;-52
2023/03/07 12:11:41;;;;;;;19.73;15.07;;;23.00;31.60;;;;;;5053265;28;20021;-54
2023/03/07 12:14:16;;;;;;;18.17;15.10;;;23.10;31.50;;;;;;5028821;28;20528;-57
2023/03/07 12:17:07;;;;;;;17.55;15.02;;;23.10;31.50;;;;;;5074992;28;20043;-53
2023/03/07 12:19:56;;;;;;;19.05;15.05;;;23.20;31.50;;;;;;5073331;28;20085;-52
2023/03/07 12:22:26;;;;;;;18.63;14.90;;;23.20;31.40;;;;;;5056597;28;20041;-56
2023/03/07 12:25:18;;;;;;;18.63;14.95;;;23.30;31.40;;;;;;5053595;28;20029;-56
2023/03/07 12:28:02;;;;;;;18.17;15.00;;;23.30;31.40;;;;;;5046901;28;20482;-57
2023/03/07 12:30:55;;;;;;;17.73;14.45;;;23.30;31.30;;;;;;5055372;28;20040;-57
2023/03/07 12:33:46;;;;;;;18.45;14.60;;;23.40;31.40;;;;;;5051377;28;20036;-56
2023/03/07 12:36:30;;;;;;;17.77;13.60;;;23.40;31.50;;;;;;5050947;28;20476;-54
2023/03/07 12:39:26;;;;;;;14.23;12.25;;;23.40;31.50;;;;;;5052311;28;20047;-56
2023/03/07 12:42:32;;;;;;;15.93;11.75;;;23.50;31.40;;;;;;5052758;28;20457;-53
2023/03/07 12:45:49;;;;;;;13.98;10.65;;;23.50;31.30;;;;;;5026056;28;20033;-52
2023/03/07 12:48:33;;;;;;;13.30;9.82;;;23.50;31.10;;;;;;5034647;28;20041;-60
2023/03/07 12:51:08;;;;;;;12.43;10.13;;;23.60;31.00;;;;;;5053053;28;20106;-57
2023/03/07 12:53:57;;;;;;;15.60;11.93;;;23.60;30.90;;;;;;5048294;28;20043;-60
2023/03/07 12:56:33;;;;;;;14.82;11.05;;;23.60;30.80;;;;;;5048210;28;20039;-60
2023/03/07 12:59:06;;;;;;;18.63;13.57;;;23.60;30.60;;;;;;5052439;28;20047;-59
2023/03/07 13:01:53;;;;;;;15.32;12.77;;;23.70;30.70;;;;;;5051348;28;20016;-58
2023/03/07 13:04:26;;;;;;;17.77;13.77;;;23.70;30.70;;;;;;5050712;28;20029;-57
2023/03/07 13:06:54;;;;;;;21.90;14.95;;;23.70;30.80;;;;;;5049366;28;20025;-59